sensor_id;sensor_type;location;lat;lon;timestamp;P1;durP1;ratioP1;P2;durP2;ratioP2
26951;SDS011;14507;52.418;13.398;2023-08-30T00:00:18;4.15;;;2.53;;
26951;SDS011;14507;52.418;13.398;2023-08-30T00:02:46;4.88;;;2.88;;
26951;SDS011;14507;52.418;13.398;2023-08-30T00:05:12;6.47;;;2.53;;
26951;SDS011;14507;52.418;13.398;2023-08-30T00:07:38;3.75;;;2.42;;
26951;SDS011;14507;52.418;13.398;2023-08-30T00:10:05;5.05;;;3.00;;
26951;SDS011;14507;52.418;13.398;2023-08-30T00:12:35;5.57;;;2.80;;
26951;SDS011;14507;52.418;13.398;2023-08-30T00:15:01;6.13;;;2.92;;
26951;SDS011;14507;52.418;13.398;2023-08-30T00:17:27;8.05;;;3.33;;
26951;SDS011;14507;52.418;13.398;2023-08-30T00:19:52;5.93;;;3.30;;
26951;SDS011;14507;52.418;13.398;2023-08-30T00:22:20;5.47;;;3.55;;
26951;SDS011;14507;52.418;13.398;2023-08-30T00:24:47;4.93;;;3.30;;
26951;SDS011;14507;52.418;13.398;2023-08-30T00:27:13;7.05;;;3.05;;
26951;SDS011;14507;52.418;13.398;2023-08-30T00:29:38;6.88;;;3.50;;
26951;SDS011;14507;52.418;13.398;2023-08-30T00:32:04;6.40;;;3.10;;
26951;SDS011;14507;52.418;13.398;2023-08-30T00:34:30;5.57;;;3.40;;
26951;SDS011;14507;52.418;13.398;2023-08-30T00:36:55;6.93;;;3.50;;
26951;SDS011;14507;52.418;13.398;2023-08-30T00:39:21;6.28;;;3.28;;
26951;SDS011;14507;52.418;13.398;2023-08-30T00:41:46;6.85;;;3.47;;
26951;SDS011;14507;52.418;13.398;2023-08-30T00:44:12;6.75;;;3.60;;
26951;SDS011;14507;52.418;13.398;2023-08-30T00:46:38;6.00;;;3.38;;
26951;SDS011;14507;52.418;13.398;2023-08-30T00:49:04;6.63;;;3.90;;
26951;SDS011;14507;52.418;13.398;2023-08-30T00:51:30;5.68;;;3.40;;
26951;SDS011;14507;52.418;13.398;2023-08-30T00:53:56;5.38;;;3.40;;
26951;SDS011;14507;52.418;13.398;2023-08-30T00:56:24;7.95;;;3.05;;
26951;SDS011;14507;52.418;13.398;2023-08-30T00:58:50;5.25;;;3.30;;
26951;SDS011;14507;52.418;13.398;2023-08-30T01:01:16;4.72;;;3.25;;
26951;SDS011;14507;52.418;13.398;2023-08-30T01:03:43;4.72;;;2.97;;
26951;SDS011;14507;52.418;13.398;2023-08-30T01:06:09;4.68;;;3.08;;
26951;SDS011;14507;52.418;13.398;2023-08-30T01:08:35;4.95;;;2.95;;
26951;SDS011;14507;52.418;13.398;2023-08-30T01:13:27;3.92;;;2.33;;
26951;SDS011;14507;52.418;13.398;2023-08-30T01:15:58;5.40;;;2.83;;
26951;SDS011;14507;52.418;13.398;2023-08-30T01:18:26;3.47;;;2.38;;
26951;SDS011;14507;52.418;13.398;2023-08-30T01:26:10;4.95;;;2.17;;
26951;SDS011;14507;52.418;13.398;2023-08-30T01:28:42;5.93;;;2.40;;
26951;SDS011;14507;52.418;13.398;2023-08-30T01:31:08;5.00;;;2.00;;
26951;SDS011;14507;52.418;13.398;2023-08-30T01:33:35;4.75;;;2.30;;
26951;SDS011;14507;52.418;13.398;2023-08-30T01:36:02;4.10;;;2.13;;
26951;SDS011;14507;52.418;13.398;2023-08-30T01:38:29;4.47;;;2.53;;
26951;SDS011;14507;52.418;13.398;2023-08-30T01:40:56;4.80;;;2.38;;
26951;SDS011;14507;52.418;13.398;2023-08-30T01:43:25;3.42;;;2.17;;
26951;SDS011;14507;52.418;13.398;2023-08-30T01:45:53;4.07;;;2.30;;
26951;SDS011;14507;52.418;13.398;2023-08-30T01:48:21;3.72;;;2.38;;
26951;SDS011;14507;52.418;13.398;2023-08-30T01:50:48;3.53;;;2.27;;
26951;SDS011;14507;52.418;13.398;2023-08-30T01:53:14;3.30;;;2.10;;
26951;SDS011;14507;52.418;13.398;2023-08-30T01:55:41;4.55;;;2.20;;
26951;SDS011;14507;52.418;13.398;2023-08-30T01:58:07;4.85;;;2.80;;
26951;SDS011;14507;52.418;13.398;2023-08-30T02:00:34;3.40;;;2.30;;
26951;SDS011;14507;52.418;13.398;2023-08-30T02:03:06;4.40;;;2.70;;
26951;SDS011;14507;52.418;13.398;2023-08-30T02:05:35;5.60;;;2.58;;
26951;SDS011;14507;52.418;13.398;2023-08-30T02:08:17;3.30;;;2.40;;
26951;SDS011;14507;52.418;13.398;2023-08-30T02:10:46;7.15;;;2.38;;
26951;SDS011;14507;52.418;13.398;2023-08-30T02:13:17;6.60;;;2.38;;
26951;SDS011;14507;52.418;13.398;2023-08-30T02:15:46;3.33;;;2.17;;
26951;SDS011;14507;52.418;13.398;2023-08-30T02:18:14;4.90;;;2.20;;
26951;SDS011;14507;52.418;13.398;2023-08-30T02:20:39;4.72;;;2.47;;
26951;SDS011;14507;52.418;13.398;2023-08-30T02:23:05;5.50;;;2.53;;
26951;SDS011;14507;52.418;13.398;2023-08-30T02:25:31;4.65;;;2.40;;
26951;SDS011;14507;52.418;13.398;2023-08-30T02:27:56;4.00;;;2.38;;
26951;SDS011;14507;52.418;13.398;2023-08-30T02:30:22;5.57;;;2.65;;
26951;SDS011;14507;52.418;13.398;2023-08-30T02:32:48;4.53;;;2.55;;
26951;SDS011;14507;52.418;13.398;2023-08-30T02:35:13;4.03;;;2.50;;
26951;SDS011;14507;52.418;13.398;2023-08-30T02:37:39;4.00;;;2.35;;
26951;SDS011;14507;52.418;13.398;2023-08-30T02:40:07;5.07;;;2.60;;
26951;SDS011;14507;52.418;13.398;2023-08-30T02:42:32;5.60;;;2.88;;
26951;SDS011;14507;52.418;13.398;2023-08-30T02:44:58;4.82;;;2.50;;
26951;SDS011;14507;52.418;13.398;2023-08-30T02:47:24;4.53;;;2.35;;
26951;SDS011;14507;52.418;13.398;2023-08-30T02:49:49;5.13;;;2.63;;
26951;SDS011;14507;52.418;13.398;2023-08-30T02:52:16;4.20;;;2.38;;
26951;SDS011;14507;52.418;13.398;2023-08-30T02:54:42;4.22;;;2.58;;
26951;SDS011;14507;52.418;13.398;2023-08-30T02:57:08;4.38;;;2.67;;
26951;SDS011;14507;52.418;13.398;2023-08-30T02:59:33;4.10;;;2.80;;
26951;SDS011;14507;52.418;13.398;2023-08-30T03:01:59;6.50;;;2.65;;
26951;SDS011;14507;52.418;13.398;2023-08-30T03:04:25;6.22;;;2.25;;
26951;SDS011;14507;52.418;13.398;2023-08-30T03:06:50;3.80;;;2.10;;
26951;SDS011;14507;52.418;13.398;2023-08-30T03:09:16;4.40;;;2.45;;
26951;SDS011;14507;52.418;13.398;2023-08-30T03:11:41;6.50;;;2.20;;
26951;SDS011;14507;52.418;13.398;2023-08-30T03:14:07;3.63;;;1.95;;
26951;SDS011;14507;52.418;13.398;2023-08-30T03:16:33;5.40;;;2.10;;
26951;SDS011;14507;52.418;13.398;2023-08-30T03:18:58;3.97;;;1.88;;
26951;SDS011;14507;52.418;13.398;2023-08-30T03:21:25;5.65;;;2.63;;
26951;SDS011;14507;52.418;13.398;2023-08-30T03:23:51;4.50;;;2.47;;
26951;SDS011;14507;52.418;13.398;2023-08-30T03:26:16;4.70;;;2.20;;
26951;SDS011;14507;52.418;13.398;2023-08-30T03:28:43;4.43;;;2.50;;
26951;SDS011;14507;52.418;13.398;2023-08-30T03:31:13;4.60;;;2.55;;
26951;SDS011;14507;52.418;13.398;2023-08-30T03:33:45;6.10;;;2.38;;
26951;SDS011;14507;52.418;13.398;2023-08-30T03:36:13;6.18;;;2.70;;
26951;SDS011;14507;52.418;13.398;2023-08-30T03:38:40;4.70;;;2.40;;
26951;SDS011;14507;52.418;13.398;2023-08-30T03:41:06;4.63;;;2.97;;
26951;SDS011;14507;52.418;13.398;2023-08-30T03:43:32;5.20;;;2.60;;
26951;SDS011;14507;52.418;13.398;2023-08-30T03:45:59;6.22;;;3.00;;
26951;SDS011;14507;52.418;13.398;2023-08-30T03:48:26;6.23;;;2.80;;
26951;SDS011;14507;52.418;13.398;2023-08-30T03:50:52;5.07;;;2.50;;
26951;SDS011;14507;52.418;13.398;2023-08-30T03:53:17;5.03;;;3.10;;
26951;SDS011;14507;52.418;13.398;2023-08-30T03:55:43;4.88;;;2.65;;
26951;SDS011;14507;52.418;13.398;2023-08-30T03:58:08;4.53;;;2.67;;
26951;SDS011;14507;52.418;13.398;2023-08-30T04:00:37;5.38;;;2.70;;
26951;SDS011;14507;52.418;13.398;2023-08-30T04:03:04;5.30;;;2.60;;
26951;SDS011;14507;52.418;13.398;2023-08-30T04:05:37;4.43;;;2.42;;
26951;SDS011;14507;52.418;13.398;2023-08-30T04:08:03;3.80;;;2.60;;
26951;SDS011;14507;52.418;13.398;2023-08-30T04:10:29;6.72;;;2.90;;
26951;SDS011;14507;52.418;13.398;2023-08-30T04:13:06;4.13;;;2.60;;
26951;SDS011;14507;52.418;13.398;2023-08-30T04:15:36;5.25;;;2.20;;
26951;SDS011;14507;52.418;13.398;2023-08-30T04:18:03;5.20;;;2.53;;
26951;SDS011;14507;52.418;13.398;2023-08-30T04:20:29;5.75;;;2.85;;
26951;SDS011;14507;52.418;13.398;2023-08-30T04:22:55;4.28;;;2.65;;
26951;SDS011;14507;52.418;13.398;2023-08-30T04:25:23;5.90;;;3.00;;
26951;SDS011;14507;52.418;13.398;2023-08-30T04:27:48;4.50;;;2.55;;
26951;SDS011;14507;52.418;13.398;2023-08-30T04:30:15;4.43;;;2.50;;
26951;SDS011;14507;52.418;13.398;2023-08-30T04:32:41;4.97;;;3.03;;
26951;SDS011;14507;52.418;13.398;2023-08-30T04:35:07;5.85;;;2.47;;
26951;SDS011;14507;52.418;13.398;2023-08-30T04:37:33;6.43;;;2.85;;
26951;SDS011;14507;52.418;13.398;2023-08-30T04:39:58;4.90;;;2.90;;
26951;SDS011;14507;52.418;13.398;2023-08-30T04:42:24;4.38;;;2.90;;
26951;SDS011;14507;52.418;13.398;2023-08-30T04:44:50;7.55;;;3.10;;
26951;SDS011;14507;52.418;13.398;2023-08-30T04:47:17;5.60;;;3.13;;
26951;SDS011;14507;52.418;13.398;2023-08-30T04:49:42;6.78;;;3.15;;
26951;SDS011;14507;52.418;13.398;2023-08-30T04:52:08;5.65;;;2.97;;
26951;SDS011;14507;52.418;13.398;2023-08-30T04:54:34;4.63;;;3.08;;
26951;SDS011;14507;52.418;13.398;2023-08-30T04:56:59;4.97;;;3.40;;
26951;SDS011;14507;52.418;13.398;2023-08-30T04:59:25;5.78;;;3.42;;
26951;SDS011;14507;52.418;13.398;2023-08-30T05:01:50;5.40;;;3.65;;
26951;SDS011;14507;52.418;13.398;2023-08-30T05:04:17;6.18;;;3.38;;
26951;SDS011;14507;52.418;13.398;2023-08-30T05:06:42;9.43;;;3.70;;
26951;SDS011;14507;52.418;13.398;2023-08-30T05:09:08;6.25;;;3.28;;
26951;SDS011;14507;52.418;13.398;2023-08-30T05:11:34;4.82;;;3.05;;
26951;SDS011;14507;52.418;13.398;2023-08-30T05:13:59;5.22;;;3.20;;
26951;SDS011;14507;52.418;13.398;2023-08-30T05:16:25;9.27;;;2.90;;
26951;SDS011;14507;52.418;13.398;2023-08-30T05:18:51;4.57;;;2.75;;
26951;SDS011;14507;52.418;13.398;2023-08-30T05:21:17;4.75;;;2.80;;
26951;SDS011;14507;52.418;13.398;2023-08-30T05:23:42;5.07;;;3.15;;
26951;SDS011;14507;52.418;13.398;2023-08-30T05:26:09;4.13;;;2.65;;
26951;SDS011;14507;52.418;13.398;2023-08-30T05:31:03;5.13;;;2.75;;
26951;SDS011;14507;52.418;13.398;2023-08-30T05:33:29;7.22;;;2.92;;
26951;SDS011;14507;52.418;13.398;2023-08-30T05:35:55;6.35;;;2.83;;
26951;SDS011;14507;52.418;13.398;2023-08-30T05:38:20;3.70;;;2.45;;
26951;SDS011;14507;52.418;13.398;2023-08-30T05:40:46;4.50;;;2.67;;
26951;SDS011;14507;52.418;13.398;2023-08-30T05:43:12;7.32;;;2.75;;
26951;SDS011;14507;52.418;13.398;2023-08-30T05:45:37;5.78;;;3.22;;
26951;SDS011;14507;52.418;13.398;2023-08-30T05:48:03;8.00;;;3.10;;
26951;SDS011;14507;52.418;13.398;2023-08-30T05:50:30;4.63;;;2.83;;
26951;SDS011;14507;52.418;13.398;2023-08-30T05:52:56;6.30;;;3.30;;
26951;SDS011;14507;52.418;13.398;2023-08-30T05:55:21;4.68;;;2.88;;
26951;SDS011;14507;52.418;13.398;2023-08-30T05:57:47;8.32;;;3.13;;
26951;SDS011;14507;52.418;13.398;2023-08-30T06:00:13;6.18;;;3.50;;
26951;SDS011;14507;52.418;13.398;2023-08-30T06:02:39;7.97;;;3.20;;
26951;SDS011;14507;52.418;13.398;2023-08-30T06:05:05;6.50;;;3.10;;
26951;SDS011;14507;52.418;13.398;2023-08-30T06:07:31;6.35;;;3.42;;
26951;SDS011;14507;52.418;13.398;2023-08-30T06:09:57;5.35;;;2.42;;
26951;SDS011;14507;52.418;13.398;2023-08-30T06:12:23;13.75;;;3.65;;
26951;SDS011;14507;52.418;13.398;2023-08-30T06:14:50;5.30;;;3.28;;
26951;SDS011;14507;52.418;13.398;2023-08-30T06:17:17;5.50;;;3.80;;
26951;SDS011;14507;52.418;13.398;2023-08-30T06:19:44;5.20;;;3.53;;
26951;SDS011;14507;52.418;13.398;2023-08-30T06:22:10;4.82;;;3.30;;
26951;SDS011;14507;52.418;13.398;2023-08-30T06:24:36;4.65;;;3.10;;
26951;SDS011;14507;52.418;13.398;2023-08-30T06:27:02;7.68;;;3.30;;
26951;SDS011;14507;52.418;13.398;2023-08-30T06:29:28;5.53;;;3.60;;
26951;SDS011;14507;52.418;13.398;2023-08-30T06:31:53;4.97;;;3.20;;
26951;SDS011;14507;52.418;13.398;2023-08-30T06:34:19;6.10;;;3.03;;
26951;SDS011;14507;52.418;13.398;2023-08-30T06:36:45;5.88;;;3.28;;
26951;SDS011;14507;52.418;13.398;2023-08-30T06:39:11;7.00;;;3.60;;
26951;SDS011;14507;52.418;13.398;2023-08-30T06:41:36;6.22;;;3.97;;
26951;SDS011;14507;52.418;13.398;2023-08-30T06:44:02;10.07;;;3.72;;
26951;SDS011;14507;52.418;13.398;2023-08-30T06:46:28;8.50;;;3.70;;
26951;SDS011;14507;52.418;13.398;2023-08-30T06:48:54;4.97;;;3.25;;
26951;SDS011;14507;52.418;13.398;2023-08-30T06:51:19;4.43;;;3.53;;
26951;SDS011;14507;52.418;13.398;2023-08-30T06:53:45;5.25;;;3.28;;
26951;SDS011;14507;52.418;13.398;2023-08-30T06:56:12;6.10;;;3.40;;
26951;SDS011;14507;52.418;13.398;2023-08-30T06:58:37;4.72;;;3.00;;
26951;SDS011;14507;52.418;13.398;2023-08-30T07:01:03;4.65;;;2.72;;
26951;SDS011;14507;52.418;13.398;2023-08-30T07:03:29;4.68;;;3.25;;
26951;SDS011;14507;52.418;13.398;2023-08-30T07:05:54;5.70;;;3.15;;
26951;SDS011;14507;52.418;13.398;2023-08-30T07:08:20;4.25;;;2.95;;
26951;SDS011;14507;52.418;13.398;2023-08-30T07:10:46;5.50;;;3.00;;
26951;SDS011;14507;52.418;13.398;2023-08-30T07:13:12;4.60;;;2.83;;
26951;SDS011;14507;52.418;13.398;2023-08-30T07:15:41;4.47;;;2.63;;
26951;SDS011;14507;52.418;13.398;2023-08-30T07:18:07;7.40;;;3.00;;
26951;SDS011;14507;52.418;13.398;2023-08-30T07:20:33;6.97;;;2.63;;
26951;SDS011;14507;52.418;13.398;2023-08-30T07:23:02;8.95;;;3.10;;
26951;SDS011;14507;52.418;13.398;2023-08-30T07:25:31;4.72;;;2.55;;
26951;SDS011;14507;52.418;13.398;2023-08-30T07:27:58;6.80;;;2.67;;
26951;SDS011;14507;52.418;13.398;2023-08-30T07:30:27;4.90;;;2.50;;
26951;SDS011;14507;52.418;13.398;2023-08-30T07:32:53;4.65;;;2.22;;
26951;SDS011;14507;52.418;13.398;2023-08-30T07:35:19;4.15;;;2.28;;
26951;SDS011;14507;52.418;13.398;2023-08-30T07:37:45;7.07;;;2.50;;
26951;SDS011;14507;52.418;13.398;2023-08-30T07:40:10;5.18;;;2.38;;
26951;SDS011;14507;52.418;13.398;2023-08-30T07:42:36;4.50;;;1.90;;
26951;SDS011;14507;52.418;13.398;2023-08-30T07:45:02;3.85;;;2.00;;
26951;SDS011;14507;52.418;13.398;2023-08-30T07:47:29;5.57;;;2.35;;
26951;SDS011;14507;52.418;13.398;2023-08-30T07:49:55;4.22;;;2.20;;
26951;SDS011;14507;52.418;13.398;2023-08-30T07:52:20;5.22;;;2.00;;
26951;SDS011;14507;52.418;13.398;2023-08-30T07:54:46;6.75;;;2.25;;
26951;SDS011;14507;52.418;13.398;2023-08-30T07:57:12;6.13;;;1.90;;
26951;SDS011;14507;52.418;13.398;2023-08-30T07:59:38;6.47;;;2.00;;
26951;SDS011;14507;52.418;13.398;2023-08-30T08:02:04;3.53;;;1.70;;
26951;SDS011;14507;52.418;13.398;2023-08-30T08:04:32;4.32;;;1.88;;
26951;SDS011;14507;52.418;13.398;2023-08-30T08:07:01;6.13;;;1.50;;
26951;SDS011;14507;52.418;13.398;2023-08-30T08:09:28;5.37;;;1.50;;
26951;SDS011;14507;52.418;13.398;2023-08-30T08:11:54;4.00;;;1.52;;
26951;SDS011;14507;52.418;13.398;2023-08-30T08:14:21;3.30;;;1.20;;
26951;SDS011;14507;52.418;13.398;2023-08-30T08:16:47;3.15;;;1.42;;
26951;SDS011;14507;52.418;13.398;2023-08-30T08:19:13;3.92;;;1.50;;
26951;SDS011;14507;52.418;13.398;2023-08-30T08:21:39;3.67;;;1.38;;
26951;SDS011;14507;52.418;13.398;2023-08-30T08:24:04;3.75;;;1.67;;
26951;SDS011;14507;52.418;13.398;2023-08-30T08:26:30;2.50;;;1.35;;
26951;SDS011;14507;52.418;13.398;2023-08-30T08:28:56;6.85;;;1.65;;
26951;SDS011;14507;52.418;13.398;2023-08-30T08:31:22;5.22;;;1.50;;
26951;SDS011;14507;52.418;13.398;2023-08-30T08:33:51;3.10;;;1.73;;
26951;SDS011;14507;52.418;13.398;2023-08-30T08:36:30;3.65;;;1.50;;
26951;SDS011;14507;52.418;13.398;2023-08-30T08:38:56;5.50;;;1.70;;
26951;SDS011;14507;52.418;13.398;2023-08-30T08:41:22;4.80;;;1.60;;
26951;SDS011;14507;52.418;13.398;2023-08-30T08:43:50;2.40;;;1.40;;
26951;SDS011;14507;52.418;13.398;2023-08-30T08:46:16;4.00;;;1.88;;
26951;SDS011;14507;52.418;13.398;2023-08-30T08:48:43;3.83;;;1.70;;
26951;SDS011;14507;52.418;13.398;2023-08-30T08:51:12;2.92;;;1.52;;
26951;SDS011;14507;52.418;13.398;2023-08-30T08:53:39;2.83;;;1.50;;
26951;SDS011;14507;52.418;13.398;2023-08-30T08:56:05;2.97;;;1.60;;
26951;SDS011;14507;52.418;13.398;2023-08-30T08:58:33;4.57;;;1.58;;
26951;SDS011;14507;52.418;13.398;2023-08-30T09:01:01;4.53;;;1.60;;
26951;SDS011;14507;52.418;13.398;2023-08-30T09:03:29;3.13;;;1.50;;
26951;SDS011;14507;52.418;13.398;2023-08-30T09:05:55;6.03;;;2.00;;
26951;SDS011;14507;52.418;13.398;2023-08-30T09:08:21;6.10;;;2.00;;
26951;SDS011;14507;52.418;13.398;2023-08-30T09:10:47;7.28;;;1.77;;
26951;SDS011;14507;52.418;13.398;2023-08-30T09:13:15;6.35;;;1.50;;
26951;SDS011;14507;52.418;13.398;2023-08-30T09:15:41;4.40;;;1.60;;
26951;SDS011;14507;52.418;13.398;2023-08-30T09:18:19;4.60;;;1.65;;
26951;SDS011;14507;52.418;13.398;2023-08-30T09:20:44;7.03;;;1.63;;
26951;SDS011;14507;52.418;13.398;2023-08-30T09:23:17;3.85;;;1.30;;
26951;SDS011;14507;52.418;13.398;2023-08-30T09:25:44;4.28;;;1.58;;
26951;SDS011;14507;52.418;13.398;2023-08-30T09:28:10;4.57;;;1.55;;
26951;SDS011;14507;52.418;13.398;2023-08-30T09:30:35;5.20;;;1.73;;
26951;SDS011;14507;52.418;13.398;2023-08-30T09:33:02;6.93;;;1.80;;
26951;SDS011;14507;52.418;13.398;2023-08-30T09:35:28;3.22;;;1.65;;
26951;SDS011;14507;52.418;13.398;2023-08-30T09:37:53;2.33;;;1.70;;
26951;SDS011;14507;52.418;13.398;2023-08-30T09:40:20;4.63;;;1.50;;
26951;SDS011;14507;52.418;13.398;2023-08-30T09:42:45;5.70;;;1.67;;
26951;SDS011;14507;52.418;13.398;2023-08-30T09:45:18;6.72;;;1.75;;
26951;SDS011;14507;52.418;13.398;2023-08-30T09:47:51;3.10;;;1.50;;
26951;SDS011;14507;52.418;13.398;2023-08-30T09:50:17;5.63;;;2.35;;
26951;SDS011;14507;52.418;13.398;2023-08-30T09:52:44;5.30;;;1.63;;
26951;SDS011;14507;52.418;13.398;2023-08-30T09:55:16;3.67;;;1.60;;
26951;SDS011;14507;52.418;13.398;2023-08-30T09:57:44;3.40;;;1.50;;
26951;SDS011;14507;52.418;13.398;2023-08-30T10:00:09;4.50;;;1.58;;
26951;SDS011;14507;52.418;13.398;2023-08-30T10:02:41;4.00;;;1.80;;
26951;SDS011;14507;52.418;13.398;2023-08-30T10:05:09;3.97;;;1.67;;
26951;SDS011;14507;52.418;13.398;2023-08-30T10:07:36;3.63;;;1.48;;
26951;SDS011;14507;52.418;13.398;2023-08-30T10:10:03;4.53;;;1.38;;
26951;SDS011;14507;52.418;13.398;2023-08-30T10:12:31;8.23;;;1.85;;
26951;SDS011;14507;52.418;13.398;2023-08-30T10:17:23;2.97;;;1.38;;
26951;SDS011;14507;52.418;13.398;2023-08-30T10:19:54;2.35;;;1.23;;
26951;SDS011;14507;52.418;13.398;2023-08-30T10:22:21;2.85;;;1.20;;
26951;SDS011;14507;52.418;13.398;2023-08-30T10:24:49;2.70;;;1.13;;
26951;SDS011;14507;52.418;13.398;2023-08-30T10:27:19;2.65;;;1.48;;
26951;SDS011;14507;52.418;13.398;2023-08-30T10:29:46;3.10;;;1.30;;
26951;SDS011;14507;52.418;13.398;2023-08-30T10:32:18;3.35;;;1.00;;
26951;SDS011;14507;52.418;13.398;2023-08-30T10:34:47;3.22;;;1.08;;
26951;SDS011;14507;52.418;13.398;2023-08-30T10:37:14;3.13;;;1.02;;
26951;SDS011;14507;52.418;13.398;2023-08-30T10:39:41;2.00;;;0.85;;
26951;SDS011;14507;52.418;13.398;2023-08-30T10:42:10;3.60;;;1.52;;
26951;SDS011;14507;52.418;13.398;2023-08-30T10:47:29;2.38;;;0.80;;
26951;SDS011;14507;52.418;13.398;2023-08-30T10:49:59;1.75;;;0.93;;
26951;SDS011;14507;52.418;13.398;2023-08-30T10:52:29;3.28;;;1.17;;
26951;SDS011;14507;52.418;13.398;2023-08-30T10:55:08;3.65;;;1.35;;
26951;SDS011;14507;52.418;13.398;2023-08-30T10:57:43;4.13;;;1.30;;
26951;SDS011;14507;52.418;13.398;2023-08-30T11:00:11;7.50;;;1.50;;
26951;SDS011;14507;52.418;13.398;2023-08-30T11:02:43;2.97;;;1.27;;
26951;SDS011;14507;52.418;13.398;2023-08-30T11:05:11;3.38;;;1.30;;
26951;SDS011;14507;52.418;13.398;2023-08-30T11:07:36;2.08;;;0.80;;
26951;SDS011;14507;52.418;13.398;2023-08-30T11:10:05;2.63;;;1.08;;
26951;SDS011;14507;52.418;13.398;2023-08-30T11:12:31;4.22;;;1.00;;
26951;SDS011;14507;52.418;13.398;2023-08-30T11:14:58;2.83;;;0.90;;
26951;SDS011;14507;52.418;13.398;2023-08-30T11:17:23;5.93;;;1.10;;
26951;SDS011;14507;52.418;13.398;2023-08-30T11:19:51;5.15;;;1.10;;
26951;SDS011;14507;52.418;13.398;2023-08-30T11:22:22;2.03;;;1.00;;
26951;SDS011;14507;52.418;13.398;2023-08-30T11:24:49;3.35;;;1.10;;
26951;SDS011;14507;52.418;13.398;2023-08-30T11:27:17;2.78;;;1.30;;
26951;SDS011;14507;52.418;13.398;2023-08-30T11:29:43;3.33;;;1.10;;
26951;SDS011;14507;52.418;13.398;2023-08-30T11:32:09;3.22;;;1.40;;
26951;SDS011;14507;52.418;13.398;2023-08-30T11:34:35;3.47;;;1.20;;
26951;SDS011;14507;52.418;13.398;2023-08-30T11:37:01;1.60;;;0.90;;
26951;SDS011;14507;52.418;13.398;2023-08-30T11:39:27;1.65;;;0.90;;
26951;SDS011;14507;52.418;13.398;2023-08-30T11:41:54;2.50;;;0.88;;
26951;SDS011;14507;52.418;13.398;2023-08-30T11:44:20;2.42;;;1.05;;
26951;SDS011;14507;52.418;13.398;2023-08-30T11:46:48;2.75;;;1.17;;
26951;SDS011;14507;52.418;13.398;2023-08-30T11:49:15;2.30;;;0.90;;
26951;SDS011;14507;52.418;13.398;2023-08-30T11:51:41;2.92;;;1.13;;
26951;SDS011;14507;52.418;13.398;2023-08-30T11:54:07;3.22;;;1.20;;
26951;SDS011;14507;52.418;13.398;2023-08-30T11:56:33;3.67;;;1.15;;
26951;SDS011;14507;52.418;13.398;2023-08-30T11:59:00;2.37;;;0.90;;
26951;SDS011;14507;52.418;13.398;2023-08-30T12:01:27;1.63;;;0.80;;
26951;SDS011;14507;52.418;13.398;2023-08-30T12:03:53;3.85;;;1.00;;
26951;SDS011;14507;52.418;13.398;2023-08-30T12:06:19;3.50;;;1.13;;
26951;SDS011;14507;52.418;13.398;2023-08-30T12:08:48;3.65;;;1.23;;
26951;SDS011;14507;52.418;13.398;2023-08-30T12:11:22;3.80;;;0.90;;
26951;SDS011;14507;52.418;13.398;2023-08-30T12:13:47;3.67;;;1.17;;
26951;SDS011;14507;52.418;13.398;2023-08-30T12:16:17;1.63;;;0.90;;
26951;SDS011;14507;52.418;13.398;2023-08-30T12:18:43;2.03;;;0.73;;
26951;SDS011;14507;52.418;13.398;2023-08-30T12:21:09;3.30;;;1.27;;
26951;SDS011;14507;52.418;13.398;2023-08-30T12:23:35;2.50;;;1.30;;
26951;SDS011;14507;52.418;13.398;2023-08-30T12:28:29;3.75;;;1.30;;
26951;SDS011;14507;52.418;13.398;2023-08-30T12:30:55;7.50;;;1.42;;
26951;SDS011;14507;52.418;13.398;2023-08-30T12:33:21;2.95;;;1.20;;
26951;SDS011;14507;52.418;13.398;2023-08-30T12:35:47;2.85;;;1.23;;
26951;SDS011;14507;52.418;13.398;2023-08-30T12:38:13;6.15;;;1.38;;
26951;SDS011;14507;52.418;13.398;2023-08-30T12:40:45;3.78;;;1.50;;
26951;SDS011;14507;52.418;13.398;2023-08-30T12:43:12;5.07;;;1.50;;
26951;SDS011;14507;52.418;13.398;2023-08-30T12:45:39;6.18;;;1.50;;
26951;SDS011;14507;52.418;13.398;2023-08-30T12:48:05;4.50;;;1.30;;
26951;SDS011;14507;52.418;13.398;2023-08-30T12:50:32;4.78;;;1.35;;
26951;SDS011;14507;52.418;13.398;2023-08-30T12:52:57;4.10;;;1.50;;
26951;SDS011;14507;52.418;13.398;2023-08-30T12:55:23;5.45;;;1.63;;
26951;SDS011;14507;52.418;13.398;2023-08-30T12:57:49;4.30;;;1.75;;
26951;SDS011;14507;52.418;13.398;2023-08-30T13:00:14;3.70;;;1.27;;
26951;SDS011;14507;52.418;13.398;2023-08-30T13:02:40;3.30;;;1.40;;
26951;SDS011;14507;52.418;13.398;2023-08-30T13:05:06;4.43;;;1.40;;
26951;SDS011;14507;52.418;13.398;2023-08-30T13:07:31;3.55;;;1.35;;
26951;SDS011;14507;52.418;13.398;2023-08-30T13:09:58;3.13;;;1.25;;
26951;SDS011;14507;52.418;13.398;2023-08-30T13:12:23;3.42;;;1.30;;
26951;SDS011;14507;52.418;13.398;2023-08-30T13:14:49;1.65;;;1.00;;
26951;SDS011;14507;52.418;13.398;2023-08-30T13:17:15;3.28;;;1.05;;
26951;SDS011;14507;52.418;13.398;2023-08-30T13:19:42;3.53;;;1.20;;
26951;SDS011;14507;52.418;13.398;2023-08-30T13:22:08;4.18;;;1.42;;
26951;SDS011;14507;52.418;13.398;2023-08-30T13:24:35;3.40;;;1.27;;
26951;SDS011;14507;52.418;13.398;2023-08-30T13:27:00;3.38;;;1.25;;
26951;SDS011;14507;52.418;13.398;2023-08-30T13:29:26;3.67;;;1.13;;
26951;SDS011;14507;52.418;13.398;2023-08-30T13:31:52;3.33;;;0.90;;
26951;SDS011;14507;52.418;13.398;2023-08-30T13:34:18;3.65;;;1.17;;
26951;SDS011;14507;52.418;13.398;2023-08-30T13:36:43;3.65;;;1.40;;
26951;SDS011;14507;52.418;13.398;2023-08-30T13:39:09;3.47;;;1.25;;
26951;SDS011;14507;52.418;13.398;2023-08-30T13:41:34;2.53;;;1.13;;
26951;SDS011;14507;52.418;13.398;2023-08-30T13:44:01;5.80;;;1.25;;
26951;SDS011;14507;52.418;13.398;2023-08-30T13:46:28;4.63;;;1.73;;
26951;SDS011;14507;52.418;13.398;2023-08-30T13:48:55;2.83;;;1.10;;
26951;SDS011;14507;52.418;13.398;2023-08-30T13:51:24;1.95;;;0.98;;
26951;SDS011;14507;52.418;13.398;2023-08-30T13:53:51;1.77;;;1.00;;
26951;SDS011;14507;52.418;13.398;2023-08-30T13:56:18;3.55;;;1.20;;
26951;SDS011;14507;52.418;13.398;2023-08-30T13:58:44;1.88;;;0.98;;
26951;SDS011;14507;52.418;13.398;2023-08-30T14:01:10;2.10;;;1.00;;
26951;SDS011;14507;52.418;13.398;2023-08-30T14:03:37;3.42;;;1.17;;
26951;SDS011;14507;52.418;13.398;2023-08-30T14:06:02;3.75;;;1.17;;
26951;SDS011;14507;52.418;13.398;2023-08-30T14:08:28;2.40;;;0.88;;
26951;SDS011;14507;52.418;13.398;2023-08-30T14:10:54;2.15;;;1.00;;
26951;SDS011;14507;52.418;13.398;2023-08-30T14:13:20;3.88;;;1.20;;
26951;SDS011;14507;52.418;13.398;2023-08-30T14:15:46;2.53;;;1.27;;
26951;SDS011;14507;52.418;13.398;2023-08-30T14:18:12;2.40;;;1.30;;
26951;SDS011;14507;52.418;13.398;2023-08-30T14:20:38;2.85;;;1.00;;
26951;SDS011;14507;52.418;13.398;2023-08-30T14:23:04;4.40;;;1.50;;
26951;SDS011;14507;52.418;13.398;2023-08-30T14:25:29;9.27;;;1.98;;
26951;SDS011;14507;52.418;13.398;2023-08-30T14:27:55;3.17;;;1.15;;
26951;SDS011;14507;52.418;13.398;2023-08-30T14:30:21;4.10;;;1.40;;
26951;SDS011;14507;52.418;13.398;2023-08-30T14:32:47;3.08;;;1.50;;
26951;SDS011;14507;52.418;13.398;2023-08-30T14:35:12;1.73;;;0.90;;
26951;SDS011;14507;52.418;13.398;2023-08-30T14:37:38;2.33;;;1.02;;
26951;SDS011;14507;52.418;13.398;2023-08-30T14:40:04;2.83;;;1.27;;
26951;SDS011;14507;52.418;13.398;2023-08-30T14:42:31;3.88;;;1.20;;
26951;SDS011;14507;52.418;13.398;2023-08-30T14:44:57;3.17;;;1.40;;
26951;SDS011;14507;52.418;13.398;2023-08-30T14:47:23;2.72;;;1.13;;